To NAV CANADA Home Page Login to a new session Search on AWWS site Feedback and Comments Disclaimer Vers la page française équivalente Tips FAQ What's new on the site To the Forecasts and Observations / NOTAM section To "File a Flight Plan" website Publications and other links Update of the User's profile FIC Telephone Numbers My Weather Data Folder Route Weather Data Regional Weather Data Local Weather Data To the Forecasts and Observations / NOTAM section
Request Generated 04/25/2015 at 04:11:28 UTC . Weather information available at that time is displayed.

METAR/TAF

MONT-JOLI/QC    

METAR CYYY 250400Z 06014KT 2SM OVC004 00/00 A2960 RMK SF8 SLP027=
METAR CYYY 250300Z 06013KT 2SM -SN BR OVC004 00/00 A2960 RMK SF8
SLP027=
METAR CYYY 250200Z 05012KT 2SM -RA BR FEW002 OVC004 00/M00 A2960 RMK
SF2SF6 SLP025=

TAF CYYY 250138Z 2502/2514 05012G22KT 2SM -SNRA BR FEW002 OVC004
TEMPO 2502/2504 1SM -SN OVC002
FM250400 06008KT 2SM -SNRA OVC004 TEMPO 2504/2514 1SM BR OVC002
BECMG 2511/2513 04012G22KT
RMK NXT FCST BY 250800Z=
Your time UTC time
Weather data provided by Environment Canada and NAV CANADA